Time;durP1;ratioP1;P1;durP2;ratioP2;P2;SDS_P1;SDS_P2;PMS_P1;PMS_P2;Temp;Humidity;BMP_temperature;BMP_pressure;BME280_temperature;BME280_humidity;BME280_pressure;Samples;Min_cycle;Max_cycle;Signal;HPM_P1;HPM_P2
2021/07/21 00:00:21;;;;;;;15.45;6.90;;;;;;;;;;5031575;28;20029;-58
2021/07/21 00:02:49;;;;;;;14.23;6.82;;;;;;;;;;5029390;28;20021;-58
2021/07/21 00:05:21;;;;;;;18.77;7.90;;;;;;;;;;5030198;28;20119;-60
2021/07/21 00:07:49;;;;;;;15.50;6.45;;;;;;;;;;5028132;28;20147;-59
2021/07/21 00:10:19;;;;;;;13.82;7.25;;;;;;;;;;5045811;28;20032;-59
2021/07/21 00:15:30;;;;;;;17.58;7.10;;;;;;;;;;5026953;28;20083;-59
2021/07/21 00:18:01;;;;;;;17.98;7.32;;;;;;;;;;5003497;28;20129;-59
2021/07/21 00:20:29;;;;;;;15.52;6.75;;;;;;;;;;5031803;28;20044;-59
2021/07/21 00:22:55;;;;;;;17.67;7.35;;;;;;;;;;5028850;28;20385;-59
2021/07/21 00:25:20;;;;;;;13.18;5.93;;;;;;;;;;5031808;28;20037;-59
2021/07/21 00:27:46;;;;;;;18.98;7.85;;;;;;;;;;5027940;28;20035;-58
2021/07/21 00:30:16;;;;;;;14.95;7.18;;;;;;;;;;5029216;28;20046;-59
2021/07/21 00:32:42;;;;;;;14.75;6.95;;;;;;;;;;5045384;28;20155;-59
2021/07/21 00:35:12;;;;;;;15.52;6.78;;;;;;;;;;5030988;28;20078;-59
2021/07/21 00:37:37;;;;;;;15.75;7.57;;;;;;;;;;5030917;28;20056;-59
2021/07/21 00:40:09;;;;;;;17.55;7.22;;;;;;;;;;5031538;28;20054;-59
2021/07/21 00:42:35;;;;;;;14.52;7.03;;;;;;;;;;5026772;28;20041;-59
2021/07/21 00:45:03;;;;;;;15.18;8.05;;;;;;;;;;5027731;28;20032;-60
2021/07/21 00:47:33;;;;;;;16.20;7.40;;;;;;;;;;5028549;28;20470;-59
2021/07/21 00:49:58;;;;;;;14.38;6.50;;;;;;;;;;5026027;28;20024;-59
2021/07/21 00:52:28;;;;;;;14.50;6.13;;;;;;;;;;5030992;28;20029;-58
2021/07/21 00:54:54;;;;;;;20.55;7.35;;;;;;;;;;5015848;28;20037;-58
2021/07/21 00:57:21;;;;;;;16.40;7.15;;;;;;;;;;5025903;28;21281;-58
2021/07/21 00:59:50;;;;;;;15.75;7.13;;;;;;;;;;4996751;28;20047;-58
2021/07/21 01:02:16;;;;;;;15.25;7.35;;;;;;;;;;5034033;28;22106;-59
2021/07/21 01:04:46;;;;;;;13.00;7.18;;;;;;;;;;5033129;28;20017;-59
2021/07/21 01:07:12;;;;;;;16.40;7.57;;;;;;;;;;5016041;28;20090;-59
2021/07/21 01:09:44;;;;;;;18.25;7.50;;;;;;;;;;5047748;28;20034;-59
2021/07/21 01:12:33;;;;;;;15.95;6.75;;;;;;;;;;5032293;28;20126;-59
2021/07/21 01:15:10;;;;;;;18.60;7.20;;;;;;;;;;5014295;28;20029;-58
2021/07/21 01:17:37;;;;;;;20.30;8.35;;;;;;;;;;5016006;28;20064;-59
2021/07/21 01:20:32;;;;;;;14.88;7.45;;;;;;;;;;5033053;28;20062;-58
2021/07/21 01:23:12;;;;;;;16.55;6.90;;;;;;;;;;5034518;28;20068;-59
2021/07/21 01:25:53;;;;;;;15.93;6.85;;;;;;;;;;5021935;28;20029;-59
2021/07/21 01:28:21;;;;;;;15.05;6.22;;;;;;;;;;5033402;28;21122;-58
2021/07/21 01:30:48;;;;;;;17.08;6.60;;;;;;;;;;5031656;28;20032;-58
2021/07/21 01:33:24;;;;;;;12.55;6.47;;;;;;;;;;5032782;28;20219;-58
2021/07/21 01:35:50;;;;;;;13.35;6.35;;;;;;;;;;5034568;28;20118;-59
2021/07/21 01:38:19;;;;;;;15.75;6.35;;;;;;;;;;5031858;28;20155;-59
2021/07/21 01:40:49;;;;;;;19.75;6.53;;;;;;;;;;5034293;28;20151;-58
2021/07/21 01:43:16;;;;;;;15.85;7.93;;;;;;;;;;5029261;28;20041;-58
2021/07/21 01:45:46;;;;;;;21.17;7.20;;;;;;;;;;5014085;28;20040;-58
2021/07/21 01:48:17;;;;;;;16.08;7.38;;;;;;;;;;5030911;28;20033;-58
2021/07/21 01:50:44;;;;;;;18.73;6.95;;;;;;;;;;5031262;28;20040;-59
2021/07/21 01:53:12;;;;;;;18.15;7.82;;;;;;;;;;5049389;28;20470;-58
2021/07/21 01:55:39;;;;;;;18.10;8.48;;;;;;;;;;5032628;28;20572;-59
2021/07/21 01:58:07;;;;;;;19.38;8.35;;;;;;;;;;5032403;28;20029;-59
2021/07/21 02:00:33;;;;;;;17.65;8.13;;;;;;;;;;5033221;28;20764;-59
2021/07/21 02:02:59;;;;;;;19.17;7.47;;;;;;;;;;5030608;28;20039;-58
2021/07/21 02:05:26;;;;;;;15.98;6.80;;;;;;;;;;5031693;28;20040;-58
2021/07/21 02:07:51;;;;;;;16.52;7.35;;;;;;;;;;5031884;28;20495;-58
2021/07/21 02:10:20;;;;;;;16.08;6.55;;;;;;;;;;5018368;28;20467;-58
2021/07/21 02:12:48;;;;;;;14.93;6.80;;;;;;;;;;5032754;28;20032;-59
2021/07/21 02:15:16;;;;;;;16.17;7.60;;;;;;;;;;5016692;28;20086;-58
2021/07/21 02:17:44;;;;;;;15.63;7.05;;;;;;;;;;5032188;28;20114;-58
2021/07/21 02:20:15;;;;;;;16.45;6.15;;;;;;;;;;5028992;28;20415;-59
2021/07/21 02:22:46;;;;;;;20.08;6.35;;;;;;;;;;5032975;28;20116;-58
2021/07/21 02:25:14;;;;;;;15.60;6.65;;;;;;;;;;5031587;28;20025;-58
2021/07/21 02:27:43;;;;;;;12.52;6.53;;;;;;;;;;5013675;28;20048;-58
2021/07/21 02:30:09;;;;;;;16.48;6.70;;;;;;;;;;5030593;28;20553;-59
2021/07/21 02:32:36;;;;;;;17.83;7.25;;;;;;;;;;5032777;28;20148;-59
2021/07/21 02:35:03;;;;;;;16.00;6.80;;;;;;;;;;5019492;28;20052;-58
2021/07/21 02:37:29;;;;;;;13.20;6.53;;;;;;;;;;5031681;28;20037;-58
2021/07/21 02:39:55;;;;;;;13.63;6.57;;;;;;;;;;5030056;28;20049;-58
2021/07/21 02:42:25;;;;;;;19.13;7.85;;;;;;;;;;5033048;28;21932;-59
2021/07/21 02:44:53;;;;;;;19.20;7.82;;;;;;;;;;5029551;28;20028;-59
2021/07/21 02:47:19;;;;;;;18.10;8.00;;;;;;;;;;5031429;28;20447;-59
2021/07/21 02:49:49;;;;;;;16.20;7.10;;;;;;;;;;5029973;28;20025;-59
2021/07/21 02:52:18;;;;;;;15.98;7.15;;;;;;;;;;5033584;28;20037;-58
2021/07/21 02:54:56;;;;;;;12.95;6.30;;;;;;;;;;5031339;28;20520;-58
2021/07/21 02:57:32;;;;;;;23.02;6.95;;;;;;;;;;5033127;28;20035;-59
2021/07/21 03:00:06;;;;;;;16.95;6.65;;;;;;;;;;5030239;28;20036;-59
2021/07/21 03:02:35;;;;;;;16.35;7.45;;;;;;;;;;5031437;28;20504;-59
2021/07/21 03:05:03;;;;;;;14.75;6.68;;;;;;;;;;5028185;28;20029;-59
2021/07/21 03:07:29;;;;;;;19.58;8.25;;;;;;;;;;5032628;28;20037;-59
2021/07/21 03:09:55;;;;;;;24.42;7.68;;;;;;;;;;5016515;28;20910;-59
2021/07/21 03:12:23;;;;;;;21.25;7.65;;;;;;;;;;5032514;28;20036;-59
2021/07/21 03:14:51;;;;;;;25.38;8.35;;;;;;;;;;5030154;28;20036;-59
2021/07/21 03:17:19;;;;;;;18.83;7.95;;;;;;;;;;5030074;28;20824;-59
2021/07/21 03:19:50;;;;;;;18.65;7.78;;;;;;;;;;5010452;28;20677;-59
2021/07/21 03:22:23;;;;;;;17.83;7.63;;;;;;;;;;5030898;28;20059;-59
2021/07/21 03:24:52;;;;;;;20.08;8.63;;;;;;;;;;5031977;28;21530;-59
2021/07/21 03:27:18;;;;;;;21.48;8.80;;;;;;;;;;5030200;28;20494;-60
2021/07/21 03:29:44;;;;;;;19.85;7.47;;;;;;;;;;5028346;28;20112;-59
2021/07/21 03:32:12;;;;;;;22.88;7.35;;;;;;;;;;5029920;28;21949;-59
2021/07/21 03:34:41;;;;;;;18.63;8.02;;;;;;;;;;5027417;28;20036;-59
2021/07/21 03:37:08;;;;;;;21.13;7.35;;;;;;;;;;5029513;28;20595;-59
2021/07/21 03:39:37;;;;;;;20.23;7.60;;;;;;;;;;5019156;28;20056;-58
2021/07/21 03:42:04;;;;;;;20.75;7.63;;;;;;;;;;5029272;28;20028;-58
2021/07/21 03:44:32;;;;;;;23.17;8.95;;;;;;;;;;5028689;28;20067;-58
2021/07/21 03:46:58;;;;;;;16.83;7.55;;;;;;;;;;5027365;28;20408;-58
2021/07/21 03:52:59;;;;;;;17.45;8.02;;;;;;;;;;5030326;28;20039;-58
2021/07/21 03:55:40;;;;;;;20.02;8.23;;;;;;;;;;5031030;28;20032;-59
2021/07/21 03:58:11;;;;;;;17.10;7.65;;;;;;;;;;5028214;28;20033;-59
2021/07/21 04:00:39;;;;;;;20.05;7.82;;;;;;;;;;5028534;28;20027;-59
2021/07/21 04:03:08;;;;;;;21.50;7.80;;;;;;;;;;5030727;28;20029;-59
2021/07/21 04:05:36;;;;;;;26.38;8.63;;;;;;;;;;5029629;28;20028;-58
2021/07/21 04:08:07;;;;;;;17.20;7.90;;;;;;;;;;5028816;28;20028;-61
2021/07/21 04:10:36;;;;;;;18.83;8.30;;;;;;;;;;5029402;28;20055;-60
2021/07/21 04:13:04;;;;;;;15.80;7.55;;;;;;;;;;5012824;28;20043;-60
2021/07/21 04:15:30;;;;;;;18.88;7.88;;;;;;;;;;5028448;28;21200;-59
2021/07/21 04:17:58;;;;;;;15.38;7.15;;;;;;;;;;5019386;28;20036;-59
2021/07/21 04:20:25;;;;;;;18.75;7.95;;;;;;;;;;5046474;28;20439;-59
2021/07/21 04:22:53;;;;;;;19.20;8.15;;;;;;;;;;5016927;28;20039;-60
2021/07/21 04:25:19;;;;;;;18.55;9.00;;;;;;;;;;5013889;28;20992;-59
2021/07/21 04:27:47;;;;;;;20.90;8.20;;;;;;;;;;5033491;28;20589;-59
2021/07/21 04:30:15;;;;;;;23.00;8.20;;;;;;;;;;5027265;28;20040;-59
2021/07/21 04:32:43;;;;;;;16.15;8.35;;;;;;;;;;5011262;28;20407;-58
2021/07/21 04:35:11;;;;;;;17.75;8.07;;;;;;;;;;5027432;28;20054;-59
2021/07/21 04:37:39;;;;;;;19.70;8.52;;;;;;;;;;5032431;28;20052;-59
2021/07/21 04:40:07;;;;;;;22.00;8.35;;;;;;;;;;5015983;28;20049;-58
2021/07/21 04:42:42;;;;;;;23.35;9.25;;;;;;;;;;5016784;28;20403;-59
2021/07/21 04:45:11;;;;;;;19.08;8.95;;;;;;;;;;5027230;28;20020;-59
2021/07/21 04:47:42;;;;;;;17.30;8.25;;;;;;;;;;5028086;28;20043;-59
2021/07/21 04:53:47;;;;;;;19.30;9.30;;;;;;;;;;5029474;28;20044;-59
2021/07/21 04:56:13;;;;;;;19.58;8.30;;;;;;;;;;5029393;28;20168;-59
2021/07/21 04:58:39;;;;;;;17.67;8.82;;;;;;;;;;5027860;28;20070;-58
2021/07/21 05:01:04;;;;;;;20.13;8.45;;;;;;;;;;5030296;28;20032;-59
2021/07/21 05:03:31;;;;;;;20.50;8.60;;;;;;;;;;5023726;28;20037;-59
2021/07/21 05:05:56;;;;;;;14.68;7.65;;;;;;;;;;5029993;28;20024;-59
2021/07/21 05:08:22;;;;;;;15.13;8.00;;;;;;;;;;5028444;28;20037;-58
2021/07/21 05:10:48;;;;;;;18.63;7.57;;;;;;;;;;5028953;28;20025;-59
2021/07/21 05:16:23;;;;;;;15.55;7.55;;;;;;;;;;5027553;28;20056;-58
2021/07/21 05:18:49;;;;;;;15.93;7.43;;;;;;;;;;5042065;28;20028;-59
2021/07/21 05:21:16;;;;;;;13.75;7.65;;;;;;;;;;5030253;28;20041;-57
2021/07/21 05:23:47;;;;;;;14.73;7.65;;;;;;;;;;5025651;28;20052;-58
2021/07/21 05:26:13;;;;;;;15.70;7.30;;;;;;;;;;5027885;28;20554;-59
2021/07/21 05:28:39;;;;;;;19.92;7.93;;;;;;;;;;5028545;28;20032;-58
2021/07/21 05:31:07;;;;;;;13.85;6.65;;;;;;;;;;5044927;28;21942;-58
2021/07/21 05:33:33;;;;;;;12.05;6.57;;;;;;;;;;5026562;28;20028;-58
2021/07/21 05:36:03;;;;;;;9.50;5.82;;;;;;;;;;5027972;28;20973;-59
2021/07/21 05:38:29;;;;;;;11.52;5.68;;;;;;;;;;5027546;28;20063;-59
2021/07/21 05:40:54;;;;;;;11.07;5.93;;;;;;;;;;5029391;28;20041;-59
2021/07/21 05:43:23;;;;;;;12.85;6.53;;;;;;;;;;5027998;28;20856;-58
2021/07/21 05:45:51;;;;;;;11.80;5.55;;;;;;;;;;5031419;28;20032;-58
2021/07/21 05:48:22;;;;;;;12.80;5.80;;;;;;;;;;5032546;28;20062;-59
2021/07/21 05:50:47;;;;;;;12.00;5.32;;;;;;;;;;5033810;28;20032;-58
2021/07/21 05:56:47;;;;;;;8.68;5.53;;;;;;;;;;5032270;28;20095;-59
2021/07/21 05:59:18;;;;;;;12.50;5.55;;;;;;;;;;5032336;28;20043;-59
2021/07/21 06:01:44;;;;;;;11.25;4.78;;;;;;;;;;5033267;28;20711;-59
2021/07/21 06:04:10;;;;;;;10.15;4.80;;;;;;;;;;5029821;28;20024;-58
2021/07/21 06:06:38;;;;;;;9.93;5.13;;;;;;;;;;5032807;28;20032;-60
2021/07/21 06:09:06;;;;;;;12.50;5.25;;;;;;;;;;5014893;28;20460;-59
2021/07/21 06:11:31;;;;;;;16.33;5.10;;;;;;;;;;5031995;28;20484;-59
2021/07/21 06:13:59;;;;;;;8.55;4.72;;;;;;;;;;5029973;28;20044;-59
2021/07/21 06:16:27;;;;;;;10.82;5.15;;;;;;;;;;5033219;28;20467;-60
2021/07/21 06:18:58;;;;;;;8.63;5.07;;;;;;;;;;5030832;28;20036;-59
2021/07/21 06:21:36;;;;;;;9.25;5.05;;;;;;;;;;5031585;28;20502;-59
2021/07/21 06:24:01;;;;;;;8.25;4.97;;;;;;;;;;5032606;28;20037;-59
2021/07/21 06:30:08;;;;;;;9.55;4.95;;;;;;;;;;5032204;28;20051;-59
2021/07/21 06:32:35;;;;;;;6.28;4.20;;;;;;;;;;5015131;28;20107;-59
2021/07/21 06:35:02;;;;;;;8.57;4.30;;;;;;;;;;5030216;28;20521;-58
2021/07/21 06:37:27;;;;;;;7.13;4.38;;;;;;;;;;5013450;28;20090;-59
2021/07/21 06:39:55;;;;;;;7.85;4.45;;;;;;;;;;4998257;28;20056;-59
2021/07/21 06:42:23;;;;;;;5.40;3.78;;;;;;;;;;5033246;28;20048;-59
2021/07/21 06:44:49;;;;;;;6.65;4.00;;;;;;;;;;5027151;28;20041;-59
2021/07/21 06:47:14;;;;;;;7.88;4.22;;;;;;;;;;5030448;28;20048;-59
2021/07/21 06:53:16;;;;;;;10.23;3.67;;;;;;;;;;5032765;28;20127;-60
2021/07/21 06:55:42;;;;;;;7.72;3.85;;;;;;;;;;5030661;28;21962;-60
2021/07/21 06:58:07;;;;;;;6.93;4.10;;;;;;;;;;5012913;28;20032;-60
2021/07/21 07:00:33;;;;;;;7.18;3.58;;;;;;;;;;5032109;28;20045;-61
2021/07/21 07:03:02;;;;;;;5.63;3.15;;;;;;;;;;5030912;28;20025;-61
2021/07/21 07:05:31;;;;;;;5.28;3.38;;;;;;;;;;5030096;28;20031;-61
2021/07/21 07:07:57;;;;;;;7.53;3.22;;;;;;;;;;5033444;28;20029;-59
2021/07/21 07:10:25;;;;;;;6.05;3.55;;;;;;;;;;5014132;28;20056;-61
2021/07/21 07:12:53;;;;;;;5.32;2.95;;;;;;;;;;5011470;28;20020;-60
2021/07/21 07:15:18;;;;;;;6.25;3.53;;;;;;;;;;5020082;28;20025;-60
2021/07/21 07:17:49;;;;;;;5.15;2.63;;;;;;;;;;5032155;28;22303;-60
2021/07/21 07:20:14;;;;;;;4.38;2.95;;;;;;;;;;4998843;28;20028;-61
2021/07/21 07:23:02;;;;;;;3.72;2.42;;;;;;;;;;5027792;28;20036;-60
2021/07/21 07:25:32;;;;;;;4.60;2.63;;;;;;;;;;5027403;28;20440;-59
2021/07/21 07:28:00;;;;;;;2.70;1.85;;;;;;;;;;5012357;28;20609;-60
2021/07/21 07:30:26;;;;;;;3.45;2.47;;;;;;;;;;4994976;28;20062;-59
2021/07/21 07:32:52;;;;;;;4.43;2.60;;;;;;;;;;5031574;28;20035;-58
2021/07/21 07:35:18;;;;;;;2.92;2.35;;;;;;;;;;5028985;28;20461;-60
2021/07/21 07:37:43;;;;;;;4.53;2.50;;;;;;;;;;5030080;28;20190;-60
2021/07/21 07:40:12;;;;;;;5.72;3.05;;;;;;;;;;5029459;28;20083;-60
2021/07/21 07:42:42;;;;;;;3.65;2.50;;;;;;;;;;5014662;28;20041;-59
2021/07/21 07:45:10;;;;;;;3.85;2.30;;;;;;;;;;5018167;28;20025;-59
2021/07/21 07:47:39;;;;;;;3.88;2.15;;;;;;;;;;5029814;28;20029;-59
2021/07/21 07:50:09;;;;;;;3.40;2.30;;;;;;;;;;5019402;28;20033;-59
2021/07/21 07:52:35;;;;;;;3.20;2.30;;;;;;;;;;5029148;28;20510;-61
2021/07/21 07:55:01;;;;;;;3.38;2.40;;;;;;;;;;5046925;28;20025;-61
2021/07/21 07:57:27;;;;;;;2.53;2.00;;;;;;;;;;5031514;28;20114;-61
2021/07/21 07:59:55;;;;;;;4.68;2.63;;;;;;;;;;5029907;28;20041;-61
2021/07/21 08:02:21;;;;;;;3.17;2.60;;;;;;;;;;5032533;28;20037;-60
2021/07/21 08:04:47;;;;;;;3.92;2.60;;;;;;;;;;5029360;28;20507;-60
2021/07/21 08:07:14;;;;;;;5.45;2.72;;;;;;;;;;5010863;28;20075;-61
2021/07/21 08:09:42;;;;;;;3.55;2.92;;;;;;;;;;5013080;28;20041;-60
2021/07/21 08:12:08;;;;;;;3.58;2.50;;;;;;;;;;5029749;28;20063;-61
2021/07/21 08:14:33;;;;;;;2.80;2.20;;;;;;;;;;5027887;28;20025;-60
2021/07/21 08:17:01;;;;;;;4.07;2.72;;;;;;;;;;5011828;28;20025;-59
2021/07/21 08:19:27;;;;;;;6.13;2.83;;;;;;;;;;5027644;28;20037;-59
2021/07/21 08:21:57;;;;;;;3.90;2.47;;;;;;;;;;5030838;28;20044;-59
2021/07/21 08:24:24;;;;;;;3.17;2.72;;;;;;;;;;5028882;28;20036;-59
2021/07/21 08:27:08;;;;;;;4.35;2.90;;;;;;;;;;5010790;28;20044;-62
2021/07/21 08:29:34;;;;;;;4.85;2.78;;;;;;;;;;5025678;28;20038;-60
2021/07/21 08:32:00;;;;;;;2.97;2.13;;;;;;;;;;5026117;28;20063;-60
2021/07/21 08:34:25;;;;;;;5.47;3.20;;;;;;;;;;5027824;28;21082;-60
2021/07/21 08:37:11;;;;;;;5.32;3.22;;;;;;;;;;5026386;28;20041;-59
2021/07/21 08:43:40;;;;;;;4.55;2.97;;;;;;;;;;5029029;28;20074;-60
2021/07/21 08:46:06;;;;;;;5.45;3.03;;;;;;;;;;5044854;28;20468;-60
2021/07/21 08:48:32;;;;;;;4.07;2.72;;;;;;;;;;5024077;28;20116;-61
2021/07/21 08:50:58;;;;;;;6.07;3.65;;;;;;;;;;5027997;28;20118;-60
2021/07/21 08:53:24;;;;;;;4.05;2.85;;;;;;;;;;5027204;28;20032;-62
2021/07/21 08:56:11;;;;;;;4.68;3.10;;;;;;;;;;5009303;28;20074;-59
2021/07/21 08:58:37;;;;;;;5.60;3.28;;;;;;;;;;5025836;28;20029;-60
2021/07/21 09:01:05;;;;;;;10.63;3.10;;;;;;;;;;5026301;28;20038;-61
2021/07/21 09:03:31;;;;;;;5.53;3.13;;;;;;;;;;5028029;28;20036;-61
2021/07/21 09:09:34;;;;;;;7.32;3.53;;;;;;;;;;5030707;28;20136;-61
2021/07/21 09:12:04;;;;;;;5.40;3.00;;;;;;;;;;4995838;28;20048;-61
2021/07/21 09:14:30;;;;;;;5.18;3.85;;;;;;;;;;5010750;28;20037;-59
2021/07/21 09:17:13;;;;;;;5.00;2.88;;;;;;;;;;5030938;28;20037;-60
2021/07/21 09:19:47;;;;;;;4.90;3.00;;;;;;;;;;5027208;28;20546;-60
2021/07/21 09:22:20;;;;;;;3.20;2.55;;;;;;;;;;5034286;28;20299;-60
2021/07/21 09:24:46;;;;;;;4.43;2.88;;;;;;;;;;5030759;28;20856;-61
2021/07/21 09:27:12;;;;;;;4.20;3.10;;;;;;;;;;5030181;28;20029;-59
2021/07/21 09:33:14;;;;;;;5.43;2.67;;;;;;;;;;5033241;28;20174;-60
2021/07/21 09:35:43;;;;;;;7.15;3.10;;;;;;;;;;5030235;28;20043;-61
2021/07/21 09:38:19;;;;;;;4.20;3.10;;;;;;;;;;5019025;28;20075;-60
2021/07/21 09:40:47;;;;;;;7.35;3.72;;;;;;;;;;5034298;28;20441;-60
2021/07/21 09:43:19;;;;;;;4.97;3.38;;;;;;;;;;5028370;28;20071;-60
2021/07/21 09:45:46;;;;;;;8.77;3.05;;;;;;;;;;5032999;28;20029;-60
2021/07/21 09:48:12;;;;;;;5.93;3.42;;;;;;;;;;5044879;28;20029;-60
2021/07/21 09:50:44;;;;;;;3.67;2.72;;;;;;;;;;5032243;28;20048;-61
2021/07/21 09:53:14;;;;;;;4.95;3.03;;;;;;;;;;5031068;28;20533;-60
2021/07/21 09:55:40;;;;;;;4.38;3.10;;;;;;;;;;5002063;28;20048;-63
2021/07/21 09:58:07;;;;;;;5.10;3.30;;;;;;;;;;5035165;28;20029;-60
2021/07/21 10:00:33;;;;;;;4.50;3.53;;;;;;;;;;5029704;28;20551;-60
2021/07/21 10:03:10;;;;;;;7.70;3.20;;;;;;;;;;5032126;28;21129;-61
2021/07/21 10:05:49;;;;;;;5.97;3.30;;;;;;;;;;5031233;28;20024;-61
2021/07/21 10:08:27;;;;;;;4.95;3.25;;;;;;;;;;5017611;28;20028;-61
2021/07/21 10:10:55;;;;;;;3.30;2.75;;;;;;;;;;5047361;28;20484;-61
2021/07/21 10:13:21;;;;;;;6.18;2.88;;;;;;;;;;5029790;28;20090;-61
2021/07/21 10:19:27;;;;;;;4.50;2.50;;;;;;;;;;5030977;28;20212;-61
2021/07/21 10:22:00;;;;;;;6.80;3.20;;;;;;;;;;5002779;28;20135;-62
2021/07/21 10:24:27;;;;;;;7.65;4.10;;;;;;;;;;5029445;28;20499;-61
2021/07/21 10:26:53;;;;;;;4.68;2.97;;;;;;;;;;5029114;28;20542;-60
2021/07/21 10:29:19;;;;;;;5.93;3.40;;;;;;;;;;5029149;28;20067;-61
2021/07/21 10:31:45;;;;;;;5.63;3.30;;;;;;;;;;5018241;28;20041;-61
2021/07/21 10:34:11;;;;;;;4.63;3.38;;;;;;;;;;5029601;28;20033;-59
2021/07/21 10:36:38;;;;;;;4.93;3.20;;;;;;;;;;5014017;28;20039;-60
2021/07/21 10:39:08;;;;;;;4.68;2.88;;;;;;;;;;5030165;28;20032;-60
2021/07/21 10:41:36;;;;;;;4.13;3.10;;;;;;;;;;5029488;28;20048;-60
2021/07/21 10:44:04;;;;;;;6.55;3.03;;;;;;;;;;4998796;28;20711;-60
2021/07/21 10:46:36;;;;;;;6.93;3.25;;;;;;;;;;5027768;28;20044;-60
2021/07/21 10:49:12;;;;;;;8.03;3.77;;;;;;;;;;5018401;28;20032;-59
2021/07/21 10:51:56;;;;;;;6.07;3.80;;;;;;;;;;5001594;28;20161;-60
2021/07/21 10:54:44;;;;;;;4.32;3.03;;;;;;;;;;5031581;28;20060;-60
2021/07/21 11:03:46;;;;;;;3.40;3.00;;;;;;;;;;5030855;28;20772;-61
2021/07/21 11:06:12;;;;;;;5.65;3.33;;;;;;;;;;5030591;28;20028;-61
2021/07/21 11:08:48;;;;;;;5.57;3.53;;;;;;;;;;5013644;28;20032;-61
2021/07/21 11:11:17;;;;;;;5.30;3.45;;;;;;;;;;5027551;28;20036;-60
2021/07/21 11:13:54;;;;;;;9.65;3.90;;;;;;;;;;5031107;28;20037;-60
2021/07/21 11:16:37;;;;;;;5.03;3.42;;;;;;;;;;5029811;28;20043;-60
2021/07/21 11:19:22;;;;;;;6.28;3.25;;;;;;;;;;5030571;28;20036;-60
2021/07/21 11:21:56;;;;;;;4.28;3.35;;;;;;;;;;5029519;28;20055;-59
2021/07/21 11:24:26;;;;;;;5.85;3.13;;;;;;;;;;5031136;28;20029;-60
2021/07/21 11:26:55;;;;;;;6.50;3.45;;;;;;;;;;5026204;28;20036;-61
2021/07/21 11:29:55;;;;;;;6.05;3.08;;;;;;;;;;5042547;28;20025;-61
2021/07/21 11:35:55;;;;;;;4.72;3.00;;;;;;;;;;5029185;28;20400;-61
2021/07/21 11:38:41;;;;;;;6.30;3.85;;;;;;;;;;5029600;28;20566;-61
2021/07/21 11:41:07;;;;;;;7.20;4.15;;;;;;;;;;5027998;28;20064;-61
2021/07/21 11:43:33;;;;;;;7.03;3.10;;;;;;;;;;5027657;28;20168;-60
2021/07/21 11:46:05;;;;;;;5.85;3.35;;;;;;;;;;5031630;28;20151;-60
2021/07/21 11:52:06;;;;;;;7.53;2.95;;;;;;;;;;5030926;28;20090;-62
2021/07/21 11:54:32;;;;;;;6.57;3.55;;;;;;;;;;5045826;28;20033;-60
2021/07/21 11:56:59;;;;;;;4.43;3.35;;;;;;;;;;5031282;28;20154;-59
2021/07/21 12:03:07;;;;;;;5.63;3.63;;;;;;;;;;5031027;28;20995;-58
2021/07/21 12:05:33;;;;;;;5.70;3.63;;;;;;;;;;5028770;28;20036;-61
2021/07/21 12:11:33;;;;;;;4.95;3.47;;;;;;;;;;5031373;28;20349;-61
2021/07/21 12:14:03;;;;;;;8.50;3.58;;;;;;;;;;5028861;28;20563;-60
2021/07/21 12:16:37;;;;;;;4.38;3.15;;;;;;;;;;5030108;28;20373;-59
2021/07/21 12:19:02;;;;;;;;;;;;;;;;;;5028716;28;20055;-60
2021/07/21 12:21:30;;;;;;;4.20;2.92;;;;;;;;;;5027812;28;19952;-60
2021/07/21 12:23:58;;;;;;;6.70;3.67;;;;;;;;;;5047173;28;20460;-62
2021/07/21 12:26:24;;;;;;;7.78;3.35;;;;;;;;;;5028936;28;20040;-60
2021/07/21 12:28:56;;;;;;;9.35;3.85;;;;;;;;;;5030187;28;20078;-60
2021/07/21 12:31:26;;;;;;;5.60;3.42;;;;;;;;;;5026638;28;21401;-61
2021/07/21 12:33:51;;;;;;;5.97;3.55;;;;;;;;;;5029220;28;20025;-61
2021/07/21 12:36:17;;;;;;;5.25;3.42;;;;;;;;;;5029393;28;20106;-61
2021/07/21 12:46:20;;;;;;;6.90;3.97;;;;;;;;;;5031881;28;20044;-60
2021/07/21 12:51:59;;;;;;;8.43;4.05;;;;;;;;;;5034287;28;20076;-60
2021/07/21 12:58:03;;;;;;;9.52;3.92;;;;;;;;;;5029976;28;20047;-60
2021/07/21 13:00:34;;;;;;;7.40;4.07;;;;;;;;;;5030483;28;20032;-60
2021/07/21 13:03:09;;;;;;;6.50;4.30;;;;;;;;;;5027436;28;20045;-60
2021/07/21 13:05:36;;;;;;;6.03;3.30;;;;;;;;;;5028465;28;20033;-60
2021/07/21 13:08:09;;;;;;;4.72;3.30;;;;;;;;;;5030717;28;20063;-61
2021/07/21 13:10:37;;;;;;;7.80;3.28;;;;;;;;;;5045167;28;20045;-60
2021/07/21 13:13:04;;;;;;;9.77;4.25;;;;;;;;;;5030549;28;20033;-61
2021/07/21 13:15:33;;;;;;;7.45;4.10;;;;;;;;;;5026906;28;20033;-60
2021/07/21 13:18:14;;;;;;;8.68;3.72;;;;;;;;;;5029934;28;20029;-60
2021/07/21 13:20:44;;;;;;;6.78;4.18;;;;;;;;;;5011119;28;20040;-60
2021/07/21 13:23:28;;;;;;;7.07;4.03;;;;;;;;;;4997743;28;20035;-59
2021/07/21 13:26:07;;;;;;;8.18;4.20;;;;;;;;;;5027406;28;20032;-60
2021/07/21 13:28:46;;;;;;;6.60;4.05;;;;;;;;;;5029651;28;20032;-60
2021/07/21 13:31:18;;;;;;;7.07;4.07;;;;;;;;;;5019451;28;20120;-59
2021/07/21 13:33:48;;;;;;;6.00;3.42;;;;;;;;;;5029639;28;20041;-61
2021/07/21 13:36:20;;;;;;;10.15;4.72;;;;;;;;;;5029811;28;20572;-60
2021/07/21 13:39:12;;;;;;;5.72;3.58;;;;;;;;;;5027492;28;20068;-60
2021/07/21 13:41:59;;;;;;;10.32;4.32;;;;;;;;;;5027441;28;20975;-61
2021/07/21 13:44:32;;;;;;;7.18;4.22;;;;;;;;;;5029543;28;21121;-60
2021/07/21 13:47:02;;;;;;;8.80;3.75;;;;;;;;;;5030445;28;20052;-60
2021/07/21 13:49:34;;;;;;;11.40;4.55;;;;;;;;;;5027511;28;20029;-61
2021/07/21 13:52:02;;;;;;;11.88;4.20;;;;;;;;;;5028772;28;20068;-60
2021/07/21 13:54:29;;;;;;;6.57;3.45;;;;;;;;;;5027710;28;20753;-60
2021/07/21 13:57:01;;;;;;;6.53;3.63;;;;;;;;;;5012854;28;20023;-60
2021/07/21 13:59:27;;;;;;;6.90;4.15;;;;;;;;;;5028478;28;20082;-60
2021/07/21 14:01:55;;;;;;;8.27;4.07;;;;;;;;;;5025804;28;20033;-60
2021/07/21 14:04:21;;;;;;;12.40;4.70;;;;;;;;;;5029896;28;20032;-59
2021/07/21 14:06:50;;;;;;;7.22;4.20;;;;;;;;;;5013884;28;20040;-59
2021/07/21 14:09:16;;;;;;;10.52;3.97;;;;;;;;;;5015370;28;20033;-62
2021/07/21 14:11:43;;;;;;;6.20;3.42;;;;;;;;;;5033316;28;20336;-60
2021/07/21 14:14:11;;;;;;;9.20;4.72;;;;;;;;;;5029302;28;20036;-59
2021/07/21 14:16:41;;;;;;;7.25;4.47;;;;;;;;;;5032934;28;20135;-59
2021/07/21 14:19:09;;;;;;;12.90;4.60;;;;;;;;;;5029248;28;20188;-61
2021/07/21 14:25:11;;;;;;;15.13;5.00;;;;;;;;;;5032550;28;20032;-60
2021/07/21 14:27:37;;;;;;;8.45;4.10;;;;;;;;;;5031350;28;20154;-60
2021/07/21 14:30:05;;;;;;;10.23;5.68;;;;;;;;;;5011863;28;20783;-60
2021/07/21 14:32:30;;;;;;;6.28;3.83;;;;;;;;;;5031688;28;20086;-60
2021/07/21 14:34:58;;;;;;;5.53;3.80;;;;;;;;;;5031066;28;20024;-60
2021/07/21 14:37:27;;;;;;;11.02;4.32;;;;;;;;;;5013623;28;20472;-60
2021/07/21 14:39:56;;;;;;;6.68;3.67;;;;;;;;;;5033495;28;20204;-60
2021/07/21 14:42:21;;;;;;;9.73;3.88;;;;;;;;;;5013878;28;20061;-61
2021/07/21 14:44:50;;;;;;;8.50;4.00;;;;;;;;;;5029610;28;20036;-60
2021/07/21 14:47:23;;;;;;;9.15;4.60;;;;;;;;;;5032580;28;20562;-60
2021/07/21 14:49:49;;;;;;;11.60;5.00;;;;;;;;;;5033464;28;20074;-60
2021/07/21 14:52:18;;;;;;;10.30;4.97;;;;;;;;;;5031086;28;20217;-61
2021/07/21 14:54:52;;;;;;;12.68;4.97;;;;;;;;;;5028746;28;20662;-61
2021/07/21 14:57:18;;;;;;;8.93;4.63;;;;;;;;;;5031678;28;20033;-60
2021/07/21 14:59:43;;;;;;;12.40;4.38;;;;;;;;;;5029244;28;20025;-61
2021/07/21 15:02:10;;;;;;;7.80;4.28;;;;;;;;;;5013679;28;20059;-59
2021/07/21 15:04:41;;;;;;;10.18;4.22;;;;;;;;;;5029988;28;20095;-60
2021/07/21 15:07:07;;;;;;;20.08;4.88;;;;;;;;;;5031666;28;20949;-59
2021/07/21 15:09:32;;;;;;;10.40;3.90;;;;;;;;;;5029987;28;20140;-59
2021/07/21 15:11:58;;;;;;;11.10;4.97;;;;;;;;;;5031670;28;20040;-60
2021/07/21 15:18:00;;;;;;;8.57;4.05;;;;;;;;;;5031474;28;20039;-60
2021/07/21 15:20:26;;;;;;;7.13;4.20;;;;;;;;;;5018906;28;20028;-60
2021/07/21 15:22:54;;;;;;;6.50;4.20;;;;;;;;;;5032310;28;20097;-59
2021/07/21 15:29:03;;;;;;;9.25;4.43;;;;;;;;;;5032542;28;20091;-61
2021/07/21 15:31:33;;;;;;;7.05;3.80;;;;;;;;;;5028868;28;20116;-59
2021/07/21 15:33:59;;;;;;;5.53;3.50;;;;;;;;;;5030462;28;20583;-60
2021/07/21 15:36:26;;;;;;;6.10;3.90;;;;;;;;;;5001820;28;20029;-60
2021/07/21 15:38:53;;;;;;;5.78;3.60;;;;;;;;;;5030689;28;20704;-60
2021/07/21 15:41:19;;;;;;;6.20;4.07;;;;;;;;;;5031880;28;20040;-60
2021/07/21 15:44:16;;;;;;;8.38;3.88;;;;;;;;;;5009049;28;20045;-59
2021/07/21 15:46:43;;;;;;;11.32;3.92;;;;;;;;;;5030571;28;20024;-60
2021/07/21 15:49:09;;;;;;;12.25;3.80;;;;;;;;;;5029673;28;20040;-60
2021/07/21 15:51:38;;;;;;;7.25;3.92;;;;;;;;;;5030038;28;20029;-60
2021/07/21 15:54:06;;;;;;;5.45;3.50;;;;;;;;;;5030745;28;20571;-61
2021/07/21 15:56:32;;;;;;;6.82;3.75;;;;;;;;;;5010460;28;20032;-60
2021/07/21 15:58:58;;;;;;;5.82;3.38;;;;;;;;;;5030161;28;20046;-60
2021/07/21 16:01:30;;;;;;;5.55;3.67;;;;;;;;;;5030117;28;20033;-60
2021/07/21 16:03:56;;;;;;;7.43;4.00;;;;;;;;;;5026682;28;20110;-60
2021/07/21 16:06:22;;;;;;;6.93;3.42;;;;;;;;;;5030036;28;20653;-60
2021/07/21 16:08:53;;;;;;;8.50;4.13;;;;;;;;;;5016393;28;20478;-60
2021/07/21 16:11:21;;;;;;;7.50;3.50;;;;;;;;;;5013994;28;20109;-59
2021/07/21 16:13:47;;;;;;;8.05;4.13;;;;;;;;;;5028805;28;20017;-60